Atyla — YJTM7 — position and weather

sailwx.info

Track history (hours):
 
Tides and Currents Weather Stations Pressure Air Temp Water Temp Dewpoint Dewpoint Depression Visibility Wind Speed Wind Dir Waves Ship Positions

Atyla

Ship's website: http://atylaship.com

Last reported at 2020-Jul-08 17:08 UTC. Time now 2020-Aug-07 09:21 UTC.
Position N 43°19' W 002°60'.
Warning: this ship's position is 29 days out of date.

Length 22 m.

Type: Sailing vessel. MMSI: 577192000.

Date/timePositionNaut miles runAvg speedWind from/ knotsBaromVisibWave heightAir tempDewpointWater temp
2020-Jul-08 17:08N 43°19' W 002°60'0 1.3
2020-Jul-08 17:00N 43°19' W 002°60'7 5.0
2020-Jul-08 15:30N 43°26' W 003°05'3 1.8
2020-Jul-08 14:00N 43°25' W 003°01'3 6.4
2020-Jul-08 13:29N 43°28' W 003°02'6 7.9
2020-Jul-08 12:42N 43°33' W 003°06'2 7.6
2020-Jul-08 12:25N 43°35' W 003°08'  
2020-Jul-03 09:49N 43°31' W 003°37'2 5.7
2020-Jul-03 09:30N 43°32' W 003°35'3 5.8
2020-Jul-03 09:00N 43°31' W 003°31'3 6.1
2020-Jul-03 08:30N 43°30' W 003°27'11 5.4
2020-Jul-03 06:29N 43°26' W 003°13'15 5.4
2020-Jul-03 03:40N 43°16' W 002°57'  
Track history (hours):
 
Tides and Currents Weather Stations Pressure Air Temp Water Temp Dewpoint Dewpoint Depression Visibility Wind Speed Wind Dir Waves Ship Positions

Atyla

Ship's website: http://atylaship.com

Last reported at 2020-Jul-08 17:08 UTC. Time now 2020-Aug-07 09:21 UTC.
Position N 43°19' W 002°60'.
Warning: this ship's position is 29 days out of date.

Length 22 m.

Type: Sailing vessel. MMSI: 577192000.

Date/timePositionNaut miles runAvg speedWind from/ knotsBaromVisibWave heightAir tempDewpointWater temp
2020-Jul-08 17:08N 43°19' W 002°60'0 1.3
2020-Jul-08 17:00N 43°19' W 002°60'7 5.0
2020-Jul-08 15:30N 43°26' W 003°05'3 1.8
2020-Jul-08 14:00N 43°25' W 003°01'3 6.4
2020-Jul-08 13:29N 43°28' W 003°02'6 7.9
2020-Jul-08 12:42N 43°33' W 003°06'2 7.6
2020-Jul-08 12:25N 43°35' W 003°08'  
2020-Jul-03 09:49N 43°31' W 003°37'2 5.7
2020-Jul-03 09:30N 43°32' W 003°35'3 5.8
2020-Jul-03 09:00N 43°31' W 003°31'3 6.1
2020-Jul-03 08:30N 43°30' W 003°27'11 5.4
2020-Jul-03 06:29N 43°26' W 003°13'15 5.4
2020-Jul-03 03:40N 43°16' W 002°57'  

Dump ship's entire track history